Time;durP1;ratioP1;P1;durP2;ratioP2;P2;SDS_P1;SDS_P2;PMS_P1;PMS_P2;Temp;Humidity;BMP_temperature;BMP_pressure;BME280_temperature;BME280_humidity;BME280_pressure;Samples;Min_cycle;Max_cycle;Signal;HPM_P1;HPM_P2
2023/05/21 19:59:43;;;;;;;4.45;3.10;;;18.20;38.60;;;;;;6065043;23;20268;-88
2023/05/21 20:02:13;;;;;;;7.72;2.90;;;18.10;41.80;;;;;;4942834;29;20223;-95
2023/05/21 20:04:40;;;;;;;5.47;2.97;;;18.00;45.60;;;;;;4939116;29;20193;-96
2023/05/21 20:07:07;;;;;;;6.90;3.30;;;17.90;46.60;;;;;;4953670;29;20208;-96
2023/05/21 20:09:34;;;;;;;4.82;3.17;;;17.90;50.40;;;;;;4957095;29;20207;-94
2023/05/21 20:12:01;;;;;;;4.30;3.28;;;17.80;52.50;;;;;;4947844;29;20207;-95
2023/05/21 20:14:27;;;;;;;5.95;3.30;;;17.70;56.10;;;;;;4941164;29;20653;-96
2023/05/21 20:16:57;;;;;;;12.57;3.60;;;17.60;58.20;;;;;;4937230;29;20280;-96
2023/05/21 20:19:24;;;;;;;3.75;3.28;;;17.60;55.30;;;;;;4937939;29;20200;-96
2023/05/21 20:21:50;;;;;;;7.82;3.45;;;17.50;63.90;;;;;;4943645;29;20206;-96
2023/05/21 20:24:17;;;;;;;4.80;3.58;;;17.60;60.40;;;;;;4947811;29;20204;-96
2023/05/21 20:26:45;;;;;;;5.32;3.53;;;17.50;64.80;;;;;;4948810;29;20291;-96
2023/05/21 20:29:12;;;;;;;3.70;3.30;;;17.50;65.80;;;;;;4940330;29;20601;-95
2023/05/21 20:42:01;;;;;;;6.85;2.97;;;17.10;96.40;;;;;;5214974;23;20294;-96
2023/05/21 20:44:28;;;;;;;5.18;2.90;;;16.90;98.60;;;;;;4943660;29;20215;-96
2023/05/21 20:46:55;;;;;;;7.65;3.13;;;16.90;99.90;;;;;;4959762;28;20204;-95
2023/05/21 20:49:23;;;;;;;5.75;3.28;;;16.80;99.90;;;;;;4959230;29;20563;-96
2023/05/21 20:59:38;;;;;;;4.28;3.10;;;16.40;99.90;;;;;;5329760;23;20237;-96
2023/05/21 21:07:08;;;;;;;5.85;3.00;;;16.20;99.90;;;;;;5765242;23;20253;-95
2023/05/21 21:09:36;;;;;;;15.18;3.63;;;16.20;99.90;;;;;;4980136;29;20211;-96
2023/05/21 21:12:03;;;;;;;7.15;3.65;;;16.20;99.90;;;;;;4966021;29;20239;-96
2023/05/21 21:14:30;;;;;;;8.65;3.83;;;16.20;99.90;;;;;;4961302;29;20260;-95
2023/05/21 21:16:58;;;;;;;7.82;3.50;;;16.20;99.90;;;;;;4961654;29;20263;-95
2023/05/21 21:19:25;;;;;;;4.60;3.55;;;16.10;99.90;;;;;;4967400;29;20203;-96
2023/05/21 21:21:52;;;;;;;4.80;3.65;;;16.10;99.90;;;;;;4973097;28;20229;-96
2023/05/21 21:24:19;;;;;;;6.65;3.65;;;16.00;99.90;;;;;;4966078;28;20199;-96
2023/05/21 21:26:46;;;;;;;12.23;3.88;;;16.00;99.90;;;;;;4966140;29;20214;-96
2023/05/21 21:29:13;;;;;;;6.30;3.70;;;15.90;99.90;;;;;;4966316;29;20200;-95
2023/05/21 21:31:40;;;;;;;7.80;3.80;;;15.80;99.90;;;;;;4966924;29;20259;-96
2023/05/21 21:34:08;;;;;;;8.02;3.80;;;15.70;99.90;;;;;;4968165;29;20201;-95
2023/05/21 21:36:35;;;;;;;4.40;3.30;;;15.60;99.90;;;;;;4970042;29;20590;-95
2023/05/21 21:39:02;;;;;;;4.43;3.65;;;15.60;99.90;;;;;;4960765;29;20195;-95
2023/05/21 21:41:29;;;;;;;4.03;3.50;;;15.50;99.90;;;;;;4969640;28;20215;-96
2023/05/21 21:43:56;;;;;;;4.53;3.80;;;15.50;99.90;;;;;;4964908;29;20288;-95
2023/05/21 21:46:24;;;;;;;4.90;3.90;;;15.50;99.90;;;;;;4965090;29;20288;-95
2023/05/21 21:48:51;;;;;;;5.93;3.90;;;15.50;99.90;;;;;;4964555;29;20249;-96
2023/05/21 21:51:20;;;;;;;5.72;3.67;;;15.40;99.90;;;;;;4967910;28;20206;-96
2023/05/21 21:53:47;;;;;;;6.70;3.50;;;15.40;99.90;;;;;;4970679;28;20279;-96
2023/05/21 21:56:15;;;;;;;6.67;3.50;;;15.30;99.90;;;;;;4969040;28;20231;-95
2023/05/21 21:58:42;;;;;;;3.80;3.40;;;15.30;99.90;;;;;;4968434;29;20195;-96
2023/05/21 22:01:09;;;;;;;6.20;3.47;;;15.30;99.90;;;;;;4965078;29;20248;-95
2023/05/21 22:03:36;;;;;;;5.15;3.63;;;15.30;99.90;;;;;;4961671;28;20198;-95
2023/05/21 22:06:03;;;;;;;5.10;4.03;;;15.30;99.90;;;;;;4964755;28;20252;-96
2023/05/21 22:08:32;;;;;;;5.45;3.90;;;15.30;99.90;;;;;;4975065;28;20319;-95
2023/05/21 22:11:00;;;;;;;4.70;3.70;;;15.30;99.90;;;;;;4981397;28;20276;-96
2023/05/21 22:13:27;;;;;;;8.73;4.07;;;15.30;99.90;;;;;;4960123;28;20342;-94
2023/05/21 22:15:54;;;;;;;8.55;4.13;;;15.20;1.00;;;;;;4959108;29;20290;-95
2023/05/21 22:18:23;;;;;;;6.43;3.93;;;15.10;1.00;;;;;;4965208;28;20649;-95
2023/05/21 22:20:51;;;;;;;5.80;3.95;;;15.10;1.00;;;;;;4973344;28;20213;-96
2023/05/21 22:23:18;;;;;;;9.00;3.92;;;15.00;1.00;;;;;;4962272;29;20204;-95
2023/05/21 22:25:46;;;;;;;6.30;4.10;;;14.90;1.00;;;;;;4960601;29;20290;-95
2023/05/21 22:28:13;;;;;;;5.17;3.93;;;14.90;1.00;;;;;;4962434;29;20212;-96
2023/05/21 22:30:40;;;;;;;5.87;4.03;;;14.80;1.00;;;;;;4958984;28;20203;-95
2023/05/21 22:33:07;;;;;;;5.63;3.90;;;14.70;1.00;;;;;;4957791;29;20281;-95
2023/05/21 22:35:33;;;;;;;7.03;4.10;;;14.70;1.00;;;;;;4957565;28;20193;-95
2023/05/21 22:38:01;;;;;;;4.97;3.60;;;14.70;1.00;;;;;;4958994;29;20200;-96
2023/05/21 22:40:28;;;;;;;4.50;3.60;;;14.70;1.00;;;;;;4958247;28;20213;-95
2023/05/21 22:42:56;;;;;;;7.57;4.10;;;14.80;1.00;;;;;;4961272;29;20280;-96
2023/05/21 22:45:23;;;;;;;6.63;4.27;;;14.80;1.00;;;;;;4963732;29;20294;-96
2023/05/21 22:47:51;;;;;;;6.23;4.13;;;14.90;1.00;;;;;;4965317;29;20219;-95
2023/05/21 22:50:18;;;;;;;5.10;4.00;;;14.90;1.00;;;;;;4963103;29;20211;-95
2023/05/21 22:52:45;;;;;;;6.57;4.27;;;14.90;1.00;;;;;;4965144;29;20200;-95
2023/05/21 22:55:12;;;;;;;5.53;4.00;;;15.00;1.00;;;;;;4972280;28;20217;-96
2023/05/21 22:57:39;;;;;;;6.13;4.10;;;15.00;1.00;;;;;;4971359;29;20235;-95
2023/05/21 23:00:11;;;;;;;6.40;4.17;;;15.00;1.00;;;;;;4957717;29;20276;-95
2023/05/21 23:02:37;;;;;;;4.97;4.28;;;15.00;1.00;;;;;;4958032;29;20199;-96
2023/05/21 23:05:05;;;;;;;7.57;4.10;;;15.00;1.00;;;;;;4957292;29;20201;-96
2023/05/21 23:07:32;;;;;;;6.17;4.23;;;14.90;1.00;;;;;;4954245;29;20261;-96
2023/05/21 23:09:59;;;;;;;5.70;3.73;;;14.90;1.00;;;;;;4960297;29;20236;-95
2023/05/21 23:12:25;;;;;;;5.13;4.10;;;14.80;1.00;;;;;;4956839;29;20654;-96
2023/05/21 23:14:52;;;;;;;6.27;4.23;;;14.80;1.00;;;;;;4961401;28;20224;-95
2023/05/21 23:17:21;;;;;;;5.10;3.90;;;14.70;1.00;;;;;;4961673;29;20202;-95
2023/05/21 23:19:51;;;;;;;7.63;4.30;;;14.70;1.00;;;;;;4960429;29;20199;-96
2023/05/21 23:22:18;;;;;;;7.23;3.80;;;14.70;1.00;;;;;;4965286;28;20214;-95
2023/05/21 23:24:45;;;;;;;5.13;4.07;;;14.70;1.00;;;;;;4960942;29;20329;-95
2023/05/21 23:27:12;;;;;;;8.87;4.53;;;14.70;1.00;;;;;;4957084;29;20670;-94
2023/05/21 23:29:38;;;;;;;6.13;3.90;;;14.70;1.00;;;;;;4956532;29;20206;-95
2023/05/21 23:32:06;;;;;;;6.80;4.03;;;14.80;1.00;;;;;;4968991;29;20210;-96
2023/05/21 23:34:34;;;;;;;7.67;4.10;;;14.80;1.00;;;;;;4962818;28;20615;-96
2023/05/21 23:37:01;;;;;;;4.80;3.73;;;14.80;1.00;;;;;;4957147;29;20274;-94
2023/05/21 23:39:28;;;;;;;6.10;4.20;;;14.70;1.00;;;;;;4957638;29;20285;-95
2023/05/21 23:41:55;;;;;;;5.50;4.00;;;14.70;1.00;;;;;;4956871;28;20699;-96
2023/05/21 23:44:22;;;;;;;6.50;3.97;;;14.60;1.00;;;;;;4956371;29;20202;-96
2023/05/21 23:46:48;;;;;;;7.50;4.23;;;14.60;1.00;;;;;;4955958;28;20196;-95
2023/05/21 23:49:15;;;;;;;8.23;4.07;;;14.50;1.00;;;;;;4956995;28;20287;-96
2023/05/21 23:51:43;;;;;;;5.10;4.07;;;14.50;1.00;;;;;;4956474;28;20195;-95
2023/05/21 23:54:10;;;;;;;6.73;4.37;;;14.50;1.00;;;;;;4956338;29;20198;-96
2023/05/21 23:56:37;;;;;;;6.47;4.10;;;14.50;1.00;;;;;;4956906;29;20194;-96
2023/05/21 23:59:04;;;;;;;6.70;4.23;;;14.50;1.00;;;;;;4957052;28;20296;-95
